Time;durP1;ratioP1;P1;durP2;ratioP2;P2;SDS_P1;SDS_P2;PMS_P1;PMS_P2;Temp;Humidity;BMP_temperature;BMP_pressure;BME280_temperature;BME280_humidity;BME280_pressure;Samples;Min_cycle;Max_cycle;Signal;HPM_P1;HPM_P2
2022/06/15 00:01:22;;;;;;;3.90;1.85;;;;;;;13.79;69.14;100718.27;1749726;82;20901;-40
2022/06/15 00:03:49;;;;;;;6.75;2.42;;;;;;;13.73;69.43;100717.58;1749697;80;20912;-40
2022/06/15 00:06:22;;;;;;;4.45;1.75;;;;;;;13.71;69.56;100715.00;1749830;82;21147;-40
2022/06/15 00:08:52;;;;;;;6.53;1.60;;;;;;;13.67;69.79;100721.19;1749829;82;20853;-41
2022/06/15 00:11:31;;;;;;;2.10;1.75;;;;;;;13.64;70.61;100718.67;1749890;82;21347;-40
2022/06/15 00:14:05;;;;;;;3.00;1.57;;;;;;;13.63;70.68;100716.97;1749595;81;21435;-40
2022/06/15 00:16:32;;;;;;;6.92;1.62;;;;;;;13.60;70.54;100719.66;1748832;82;21355;-40
2022/06/15 00:19:00;;;;;;;3.05;1.80;;;;;;;13.59;70.63;100724.45;1749945;81;21814;-40
2022/06/15 00:21:27;;;;;;;7.72;1.75;;;;;;;13.56;70.69;100733.64;1749692;82;20932;-40
2022/06/15 00:23:54;;;;;;;5.42;1.50;;;;;;;13.54;70.70;100728.47;1749671;81;20920;-40
2022/06/15 00:26:20;;;;;;;6.72;1.67;;;;;;;13.50;70.82;100728.98;1749862;82;20983;-39
2022/06/15 00:28:47;;;;;;;7.53;1.60;;;;;;;13.48;71.29;100739.03;1749794;82;21019;-40
2022/06/15 00:31:14;;;;;;;2.75;1.80;;;;;;;13.42;71.63;100736.11;1749649;82;21116;-40
2022/06/15 00:33:41;;;;;;;2.65;1.60;;;;;;;13.42;71.82;100737.88;1749802;82;20920;-40
2022/06/15 00:36:12;;;;;;;5.22;1.98;;;;;;;13.41;72.09;100738.30;1739795;81;21447;-40
2022/06/15 00:38:42;;;;;;;5.42;1.90;;;;;;;13.39;72.40;100744.42;1720658;83;20940;-41
2022/06/15 00:41:14;;;;;;;3.70;1.75;;;;;;;13.36;72.72;100742.31;1720712;83;21509;-40
2022/06/15 00:43:49;;;;;;;6.72;1.75;;;;;;;13.35;72.99;100743.66;1720556;82;22223;-40
2022/06/15 00:46:39;;;;;;;3.60;1.75;;;;;;;13.35;73.23;100743.66;1720466;82;20928;-39
2022/06/15 00:49:18;;;;;;;8.50;1.87;;;;;;;13.32;72.91;100741.15;1720164;83;20908;-41
2022/06/15 00:51:47;;;;;;;2.45;1.47;;;;;;;13.23;72.95;100736.56;1693372;83;21090;-40
2022/06/15 00:54:14;;;;;;;4.37;1.80;;;;;;;13.14;73.36;100740.70;1720018;83;20920;-40
2022/06/15 00:56:43;;;;;;;5.65;1.70;;;;;;;13.07;73.72;100736.56;1720243;83;21495;-40
2022/06/15 00:59:21;;;;;;;5.05;1.62;;;;;;;13.02;73.99;100738.42;1720011;83;20932;-40
2022/06/15 01:01:48;;;;;;;7.17;1.37;;;;;;;12.98;73.96;100738.06;1719247;83;20934;-40
2022/06/15 01:04:15;;;;;;;2.60;1.77;;;;;;;12.95;74.11;100741.61;1693752;83;21529;-40
2022/06/15 01:06:52;;;;;;;2.35;1.42;;;;;;;12.94;74.24;100742.50;1720344;83;20956;-40
2022/06/15 01:09:27;;;;;;;10.65;1.75;;;;;;;12.90;74.26;100736.50;1719729;83;21883;-40
2022/06/15 01:12:38;;;;;;;3.15;1.55;;;;;;;12.86;74.49;100737.91;1720065;83;20940;-39
2022/06/15 01:15:33;;;;;;;4.70;1.62;;;;;;;12.77;74.68;100743.73;1720183;83;21039;-39
2022/06/15 01:18:29;;;;;;;8.23;1.95;;;;;;;12.74;74.74;100752.03;1720265;83;20889;-39
2022/06/15 01:21:05;;;;;;;1.55;1.45;;;;;;;12.70;74.47;100750.39;1720168;83;21149;-39
2022/06/15 01:24:05;;;;;;;2.77;1.57;;;;;;;12.61;74.47;100748.42;1720355;82;21393;-39
2022/06/15 01:27:22;;;;;;;4.25;1.60;;;;;;;12.57;74.56;100742.02;1658122;83;20928;-40
2022/06/15 01:30:17;;;;;;;11.12;2.00;;;;;;;12.54;74.72;100748.16;1720195;82;20932;-39
2022/06/15 01:33:18;;;;;;;3.42;2.00;;;;;;;12.48;74.65;100746.97;1720132;83;20999;-39
2022/06/15 01:35:56;;;;;;;6.45;2.30;;;;;;;12.48;74.42;100740.48;1722531;83;20983;-39
2022/06/15 01:38:34;;;;;;;4.15;1.72;;;;;;;12.47;75.22;100756.95;1722962;83;22019;-39
2022/06/15 01:41:11;;;;;;;2.25;1.60;;;;;;;12.47;74.72;100751.33;1695498;83;20913;-39
2022/06/15 01:43:43;;;;;;;5.28;1.70;;;;;;;12.45;74.70;100755.70;1727652;82;21427;-39
2022/06/15 01:46:10;;;;;;;4.42;1.90;;;;;;;12.42;74.46;100750.58;1727703;83;20952;-39
2022/06/15 01:48:37;;;;;;;7.00;2.10;;;;;;;12.40;74.78;100754.08;1700902;83;20968;-40
2022/06/15 01:51:14;;;;;;;4.08;1.77;;;;;;;12.38;74.82;100758.02;1727681;83;21146;-40
2022/06/15 01:53:48;;;;;;;4.90;1.77;;;;;;;12.34;74.78;100759.81;1727657;83;20975;-39
2022/06/15 01:56:24;;;;;;;5.17;1.73;;;;;;;12.28;74.61;100762.55;1701553;83;20938;-39
2022/06/15 01:59:02;;;;;;;4.53;1.60;;;;;;;12.25;74.87;100766.94;1727536;83;20991;-39
2022/06/15 02:01:40;;;;;;;3.22;1.60;;;;;;;12.23;74.70;100767.41;1727663;82;20877;-40
2022/06/15 02:04:30;;;;;;;2.15;1.30;;;;;;;12.21;74.69;100767.00;1727618;82;21259;-39
2022/06/15 02:07:30;;;;;;;6.78;1.57;;;;;;;12.18;74.68;100769.66;1727697;83;20967;-39
2022/06/15 02:10:15;;;;;;;6.40;1.95;;;;;;;12.15;74.79;100774.92;1727601;83;20978;-39
2022/06/15 02:13:02;;;;;;;5.75;1.85;;;;;;;12.14;75.25;100777.53;1727021;83;20912;-39
2022/06/15 02:15:30;;;;;;;7.53;1.80;;;;;;;12.15;75.70;100772.75;1727750;83;20979;-39
2022/06/15 02:18:03;;;;;;;4.30;2.35;;;;;;;12.15;75.79;100775.34;1692566;84;21157;-39
2022/06/15 02:20:33;;;;;;;3.87;2.42;;;;;;;12.16;76.61;100780.52;1663220;86;21006;-39
2022/06/15 02:23:03;;;;;;;5.10;1.98;;;;;;;12.16;77.19;100783.11;1692805;84;20871;-39
2022/06/15 02:25:34;;;;;;;4.05;2.00;;;;;;;12.14;77.08;100780.13;1692698;84;21475;-39
2022/06/15 02:28:03;;;;;;;9.23;2.37;;;;;;;12.11;76.82;100781.03;1663437;86;20923;-40
2022/06/15 02:30:30;;;;;;;7.70;2.00;;;;;;;12.11;77.03;100785.38;1692562;84;22200;-39
2022/06/15 02:33:14;;;;;;;7.95;2.60;;;;;;;12.09;77.31;100777.61;1663148;86;20943;-40
2022/06/15 02:35:42;;;;;;;4.97;1.70;;;;;;;12.11;75.82;100776.30;1665539;84;21573;-39
2022/06/15 02:38:11;;;;;;;4.42;1.77;;;;;;;12.15;75.54;100772.75;1706503;84;20933;-39
2022/06/15 02:40:38;;;;;;;6.28;1.75;;;;;;;12.19;75.34;100775.27;1706684;84;20893;-39
2022/06/15 02:43:06;;;;;;;6.67;1.98;;;;;;;12.23;74.98;100777.80;1706446;83;22190;-39
2022/06/15 02:45:37;;;;;;;9.95;1.50;;;;;;;12.28;74.57;100779.84;1706387;83;21539;-40
2022/06/15 02:48:05;;;;;;;3.02;1.27;;;;;;;12.35;73.90;100773.64;1706537;84;21031;-39
2022/06/15 02:50:43;;;;;;;9.55;1.87;;;;;;;12.39;73.95;100771.41;1706542;84;20889;-40
2022/06/15 02:53:15;;;;;;;3.60;1.10;;;;;;;12.42;73.58;100781.73;1703520;84;20953;-39
2022/06/15 02:55:42;;;;;;;5.10;1.30;;;;;;;12.50;73.03;100785.44;1705998;84;21257;-40
2022/06/15 02:58:15;;;;;;;3.15;1.22;;;;;;;12.58;72.33;100784.85;1706614;84;20876;-40
2022/06/15 03:00:44;;;;;;;7.40;1.20;;;;;;;12.65;70.92;100785.58;1671799;85;21490;-40
2022/06/15 03:03:12;;;;;;;4.00;1.30;;;;;;;12.76;71.22;100789.24;1706723;84;20870;-40
2022/06/15 03:05:41;;;;;;;5.05;1.55;;;;;;;12.81;71.07;100792.58;1653020;85;21007;-40
2022/06/15 03:08:09;;;;;;;2.95;1.25;;;;;;;12.87;70.61;100793.73;1706396;83;21123;-40
2022/06/15 03:10:37;;;;;;;4.45;1.20;;;;;;;12.96;70.29;100798.30;1706464;84;21392;-40
2022/06/15 03:13:04;;;;;;;11.80;1.85;;;;;;;13.05;70.03;100804.61;1706563;83;20945;-40
2022/06/15 03:15:31;;;;;;;4.55;1.30;;;;;;;13.16;69.34;100800.00;1706531;84;20984;-40
2022/06/15 03:17:57;;;;;;;4.00;1.47;;;;;;;13.21;68.79;100800.73;1706564;83;20960;-40
2022/06/15 03:20:25;;;;;;;4.20;1.30;;;;;;;13.29;68.13;100797.13;1706713;83;21032;-40
2022/06/15 03:22:53;;;;;;;6.80;1.65;;;;;;;13.35;68.18;100799.10;1706580;83;20965;-40
2022/06/15 03:25:22;;;;;;;5.53;1.50;;;;;;;13.43;68.12;100797.65;1706630;84;20932;-40
2022/06/15 03:27:49;;;;;;;3.70;1.30;;;;;;;13.49;67.42;100800.55;1706610;84;20981;-40
2022/06/15 03:30:18;;;;;;;1.62;1.15;;;;;;;13.57;67.39;100801.66;1706627;84;21367;-40
2022/06/15 03:32:47;;;;;;;4.78;1.27;;;;;;;13.63;67.35;100801.50;1705577;84;21227;-40
2022/06/15 03:35:16;;;;;;;6.97;1.55;;;;;;;13.71;66.83;100803.45;1706349;83;20988;-40
2022/06/15 03:37:43;;;;;;;11.50;1.72;;;;;;;13.83;65.93;100813.98;1706507;83;20969;-40
2022/06/15 03:40:12;;;;;;;5.58;1.27;;;;;;;13.98;66.19;100812.72;1699433;84;21566;-40
2022/06/15 03:42:41;;;;;;;5.97;1.30;;;;;;;14.24;66.12;100805.94;1672406;84;20936;-41
2022/06/15 03:45:11;;;;;;;2.10;1.22;;;;;;;14.57;64.78;100813.70;1706761;83;21108;-41
2022/06/15 03:47:39;;;;;;;3.52;1.47;;;;;;;14.88;63.69;100816.70;1706463;84;20980;-40
2022/06/15 03:50:09;;;;;;;2.42;1.10;;;;;;;15.16;62.48;100815.00;1706517;84;20989;-40
2022/06/15 03:52:36;;;;;;;3.12;1.05;;;;;;;15.42;61.86;100821.97;1706429;83;21581;-40
2022/06/15 03:55:04;;;;;;;6.03;1.70;;;;;;;15.59;60.94;100819.26;1706565;84;20933;-40
2022/06/15 03:57:31;;;;;;;2.00;1.35;;;;;;;15.74;60.25;100815.27;1706525;84;21922;-40
2022/06/15 03:59:59;;;;;;;2.45;0.98;;;;;;;15.89;59.13;100816.53;1706650;83;20991;-40
2022/06/15 04:02:34;;;;;;;4.47;0.93;;;;;;;16.02;59.25;100819.09;1670245;85;21099;-40
2022/06/15 04:05:05;;;;;;;2.83;1.30;;;;;;;16.16;58.75;100822.98;1706425;83;21551;-41
2022/06/15 04:10:18;;;;;;;6.50;1.00;;;;;;;16.37;58.79;100820.89;1706753;84;21111;-40
2022/06/15 04:12:47;;;;;;;1.35;0.90;;;;;;;16.49;57.86;100825.25;1706535;84;20976;-40
2022/06/15 04:15:16;;;;;;;4.15;1.25;;;;;;;16.64;57.53;100829.05;1706525;84;20945;-41
2022/06/15 04:17:45;;;;;;;8.53;1.50;;;;;;;16.81;56.38;100822.73;1671718;85;20920;-40
2022/06/15 04:20:32;;;;;;;7.62;1.25;;;;;;;16.92;56.01;100821.00;1689643;84;20883;-40
2022/06/15 04:23:09;;;;;;;4.47;1.10;;;;;;;17.08;55.71;100824.36;1672305;85;21086;-40
2022/06/15 04:25:52;;;;;;;3.35;1.17;;;;;;;17.24;55.20;100833.27;1706608;84;20940;-41
2022/06/15 04:28:21;;;;;;;2.98;1.10;;;;;;;17.40;54.29;100836.59;1672566;85;21032;-40
2022/06/15 04:30:49;;;;;;;6.05;1.20;;;;;;;17.48;54.29;100828.42;1706613;84;20897;-40
2022/06/15 04:33:16;;;;;;;4.05;1.00;;;;;;;17.66;53.69;100834.65;1634515;86;21554;-41
2022/06/15 04:35:44;;;;;;;2.90;1.10;;;;;;;17.86;53.52;100836.41;1653549;86;21135;-41
2022/06/15 04:38:12;;;;;;;4.78;1.10;;;;;;;18.04;53.24;100838.71;1653285;85;21506;-40
2022/06/15 04:40:45;;;;;;;4.72;0.90;;;;;;;18.21;52.55;100837.13;1652786;86;20977;-40
2022/06/15 04:43:12;;;;;;;3.50;1.10;;;;;;;18.41;52.10;100834.08;1653350;86;20976;-40
2022/06/15 04:45:39;;;;;;;2.70;1.10;;;;;;;18.59;51.61;100838.48;1653538;86;21071;-40
2022/06/15 04:48:14;;;;;;;1.55;0.90;;;;;;;18.69;50.52;100838.05;1653631;86;22056;-40
2022/06/15 04:50:39;;;;;;;3.35;1.10;;;;;;;18.69;48.02;100850.69;1653388;86;20922;-40
2022/06/15 04:53:07;;;;;;;2.70;1.12;;;;;;;18.65;48.76;100836.89;1653448;86;21163;-40
2022/06/15 04:55:35;;;;;;;4.45;1.15;;;;;;;18.66;49.25;100843.83;1653784;86;21676;-40
2022/06/15 04:58:02;;;;;;;2.90;0.90;;;;;;;18.76;48.46;100840.32;1653568;86;20988;-40
2022/06/15 05:00:35;;;;;;;0.95;0.80;;;;;;;18.92;48.56;100847.00;1653731;86;22015;-41
2022/06/15 05:03:04;;;;;;;7.00;0.90;;;;;;;19.19;48.06;100845.31;1653909;86;21575;-40
2022/06/15 05:05:31;;;;;;;5.30;1.10;;;;;;;19.47;47.31;100845.27;1653530;86;21071;-40
2022/06/15 05:07:59;;;;;;;10.85;1.15;;;;;;;19.64;46.62;100850.15;1653654;86;21040;-40
2022/06/15 05:10:27;;;;;;;4.33;1.00;;;;;;;19.75;46.17;100846.98;1653634;86;21459;-40
2022/06/15 05:12:54;;;;;;;3.50;0.60;;;;;;;19.87;46.55;100856.84;1653604;86;21229;-40
2022/06/15 05:15:24;;;;;;;7.42;1.77;;;;;;;20.01;45.58;100862.73;1653533;86;20985;-40
2022/06/15 05:17:53;;;;;;;8.05;1.10;;;;;;;20.09;44.33;100863.66;1653378;86;20921;-41
2022/06/15 05:20:22;;;;;;;4.00;1.10;;;;;;;20.10;44.01;100871.47;1653542;86;21064;-41
2022/06/15 05:22:51;;;;;;;2.83;0.88;;;;;;;20.10;43.52;100864.90;1653663;86;20894;-40
2022/06/15 05:25:20;;;;;;;1.50;0.62;;;;;;;20.25;43.97;100870.27;1634118;86;21120;-41
2022/06/15 05:27:48;;;;;;;3.25;0.70;;;;;;;20.34;43.69;100865.85;1653404;86;22416;-40
2022/06/15 05:30:17;;;;;;;6.95;0.90;;;;;;;20.18;42.18;100871.05;1653528;86;21056;-40
2022/06/15 05:32:46;;;;;;;9.23;0.80;;;;;;;20.13;42.92;100863.87;1634750;86;21032;-40
2022/06/15 05:35:15;;;;;;;8.33;1.02;;;;;;;20.32;42.38;100867.69;1653513;86;21016;-40
2022/06/15 05:37:43;;;;;;;4.42;0.80;;;;;;;20.54;43.02;100866.54;1653414;85;21152;-41
2022/06/15 05:40:12;;;;;;;11.93;1.30;;;;;;;20.81;42.34;100856.79;1653322;85;20930;-41
2022/06/15 05:42:40;;;;;;;5.58;1.27;;;;;;;21.03;42.56;100858.23;1653526;86;21024;-40
2022/06/15 05:45:09;;;;;;;4.62;1.02;;;;;;;21.14;42.54;100864.20;1653734;86;22322;-40
2022/06/15 05:47:35;;;;;;;4.87;0.80;;;;;;;21.00;41.32;100860.58;1653565;86;21025;-41
2022/06/15 05:50:08;;;;;;;2.05;0.85;;;;;;;20.92;41.30;100864.95;1640759;86;21307;-40
2022/06/15 05:52:38;;;;;;;2.05;0.80;;;;;;;20.84;41.21;100867.17;1652963;86;20917;-40
2022/06/15 05:55:07;;;;;;;3.08;0.60;;;;;;;20.79;41.52;100860.84;1653704;86;21246;-40
2022/06/15 05:57:34;;;;;;;4.03;1.00;;;;;;;20.96;41.04;100868.23;1653382;86;21627;-41
2022/06/15 06:00:04;;;;;;;1.17;0.85;;;;;;;21.10;41.06;100864.38;1653588;86;20921;-40
2022/06/15 06:02:32;;;;;;;1.42;0.60;;;;;;;21.22;40.82;100864.16;1652359;85;21115;-40
2022/06/15 06:04:59;;;;;;;1.95;0.40;;;;;;;21.15;39.13;100877.29;1653554;86;20889;-40
2022/06/15 06:07:25;;;;;;;1.67;1.10;;;;;;;20.95;39.34;100871.36;1653578;86;20929;-40
2022/06/15 06:09:52;;;;;;;1.62;0.62;;;;;;;20.88;39.24;100871.33;1653726;86;20918;-41
2022/06/15 06:12:21;;;;;;;4.22;0.70;;;;;;;20.83;40.60;100866.76;1653565;85;21503;-39
2022/06/15 06:14:51;;;;;;;4.03;0.95;;;;;;;20.91;39.84;100868.52;1653629;86;21134;-41
2022/06/15 06:17:17;;;;;;;3.45;0.60;;;;;;;20.98;40.33;100870.80;1653581;86;20994;-41
2022/06/15 06:19:44;;;;;;;1.98;0.80;;;;;;;21.18;39.72;100861.32;1653470;86;21065;-41
2022/06/15 06:22:10;;;;;;;4.00;0.95;;;;;;;21.32;39.11;100867.56;1653564;86;20925;-41
2022/06/15 06:24:37;;;;;;;3.00;0.95;;;;;;;21.36;39.47;100867.31;1653607;86;20965;-41
2022/06/15 06:27:06;;;;;;;7.15;0.98;;;;;;;21.50;39.67;100869.14;1653481;86;21036;-41
2022/06/15 06:29:32;;;;;;;5.70;0.72;;;;;;;21.66;39.87;100863.02;1653902;86;21052;-41
2022/06/15 06:32:00;;;;;;;1.82;1.05;;;;;;;21.67;39.79;100870.81;1653475;86;20933;-41
2022/06/15 06:34:29;;;;;;;1.80;0.70;;;;;;;21.63;39.46;100865.33;1653416;86;20985;-41
2022/06/15 06:36:56;;;;;;;3.65;0.53;;;;;;;21.72;39.60;100874.50;1634256;86;21037;-41
2022/06/15 06:39:25;;;;;;;1.20;0.62;;;;;;;21.57;38.92;100864.83;1653598;86;21279;-41
2022/06/15 06:41:54;;;;;;;3.37;0.68;;;;;;;21.46;38.40;100870.27;1653514;86;21007;-41
2022/06/15 06:44:22;;;;;;;5.05;0.75;;;;;;;21.50;40.18;100873.09;1653521;86;21024;-41
2022/06/15 06:46:49;;;;;;;8.38;1.20;;;;;;;21.53;39.07;100870.77;1653477;86;21054;-41
2022/06/15 06:49:17;;;;;;;7.87;1.05;;;;;;;21.74;39.05;100875.75;1653458;86;20961;-41
2022/06/15 06:51:44;;;;;;;2.17;0.62;;;;;;;21.78;39.39;100870.19;1653758;86;21471;-41
2022/06/15 06:54:14;;;;;;;3.55;0.50;;;;;;;21.86;39.08;100875.48;1653510;86;20913;-41
2022/06/15 06:56:41;;;;;;;4.70;0.80;;;;;;;21.86;37.84;100884.22;1653574;86;21009;-41
2022/06/15 06:59:10;;;;;;;3.70;0.90;;;;;;;21.66;37.54;100886.24;1653556;86;20969;-41
2022/06/15 07:01:40;;;;;;;1.47;0.57;;;;;;;21.52;38.70;100877.80;1653485;86;21021;-41
2022/06/15 07:04:08;;;;;;;3.30;0.88;;;;;;;21.57;37.87;100885.89;1634663;86;21070;-41
2022/06/15 07:06:35;;;;;;;2.60;0.75;;;;;;;21.40;35.84;100878.52;1653512;86;20925;-41
2022/06/15 07:09:03;;;;;;;1.60;0.57;;;;;;;21.32;37.05;100882.91;1653616;86;21672;-42
2022/06/15 07:11:30;;;;;;;5.67;0.68;;;;;;;21.49;38.46;100882.41;1653552;86;20989;-42
2022/06/15 07:13:59;;;;;;;4.35;1.02;;;;;;;21.58;38.25;100875.73;1653564;86;20961;-42
2022/06/15 07:16:26;;;;;;;3.30;0.60;;;;;;;21.60;38.36;100876.04;1653433;86;21262;-42
2022/06/15 07:18:53;;;;;;;7.10;0.75;;;;;;;21.60;37.84;100878.67;1653553;86;21495;-41
2022/06/15 07:21:24;;;;;;;3.50;0.78;;;;;;;21.72;36.35;100872.33;1653485;86;21531;-43
2022/06/15 07:23:55;;;;;;;2.47;0.85;;;;;;;21.95;37.38;100877.08;1653387;86;20973;-41
2022/06/15 07:26:29;;;;;;;1.77;0.70;;;;;;;21.94;36.65;100874.06;1653524;86;20961;-42
2022/06/15 07:28:57;;;;;;;3.12;0.60;;;;;;;21.86;36.82;100868.42;1653705;86;21074;-42
2022/06/15 07:31:28;;;;;;;2.42;0.75;;;;;;;21.82;36.60;100863.79;1653530;86;20972;-42
2022/06/15 07:33:55;;;;;;;2.72;0.60;;;;;;;21.78;38.02;100859.65;1634476;86;21563;-42
2022/06/15 07:36:23;;;;;;;2.47;0.80;;;;;;;21.92;37.16;100865.89;1653476;86;21068;-42
2022/06/15 07:38:52;;;;;;;3.58;0.90;;;;;;;22.04;35.97;100878.31;1653319;86;20881;-42
2022/06/15 07:41:19;;;;;;;1.67;0.80;;;;;;;22.15;36.19;100867.61;1653373;86;22182;-42
2022/06/15 07:43:46;;;;;;;3.17;1.00;;;;;;;22.20;36.70;100866.37;1653368;85;20997;-42
2022/06/15 07:46:13;;;;;;;2.60;0.80;;;;;;;22.30;36.39;100865.34;1653526;86;21099;-42
2022/06/15 07:51:33;;;;;;;5.80;0.78;;;;;;;22.70;35.83;100862.52;1653733;86;21076;-42
2022/06/15 07:54:02;;;;;;;4.03;0.57;;;;;;;22.87;36.38;100859.66;1653523;86;21250;-42
2022/06/15 07:56:29;;;;;;;2.25;0.80;;;;;;;22.71;36.43;100870.80;1653559;85;20977;-42
2022/06/15 07:58:55;;;;;;;6.95;1.00;;;;;;;22.47;37.60;100869.59;1653764;86;21577;-42
2022/06/15 08:01:22;;;;;;;10.90;1.02;;;;;;;22.33;36.20;100879.64;1653679;86;21016;-42
2022/06/15 08:03:49;;;;;;;9.13;0.60;;;;;;;22.22;35.80;100870.24;1653704;86;20988;-43
2022/06/15 08:06:16;;;;;;;3.60;0.70;;;;;;;22.48;36.42;100873.95;1653523;86;21261;-39
2022/06/15 08:08:44;;;;;;;3.50;0.50;;;;;;;22.72;35.34;100865.41;1653644;86;20957;-40
2022/06/15 08:11:12;;;;;;;7.92;1.32;;;;;;;22.93;36.71;100864.98;1653557;86;20973;-40
2022/06/15 08:13:41;;;;;;;2.00;0.53;;;;;;;23.14;35.74;100866.73;1653669;86;21020;-40
2022/06/15 08:16:08;;;;;;;9.53;0.72;;;;;;;23.21;34.42;100890.92;1653417;86;21531;-40
2022/06/15 08:18:43;;;;;;;3.77;0.47;;;;;;;23.17;37.11;100870.48;1653598;86;21150;-40
2022/06/15 08:21:18;;;;;;;3.37;0.50;;;;;;;23.20;36.05;100879.98;1653933;86;20988;-40
2022/06/15 08:23:46;;;;;;;4.08;0.50;;;;;;;23.20;36.05;100879.98;1653676;86;21494;-41
2022/06/15 08:26:17;;;;;;;7.42;0.70;;;;;;;23.07;34.59;100866.73;1653627;86;20977;-41
2022/06/15 08:28:49;;;;;;;1.90;0.50;;;;;;;22.90;36.62;100872.65;1653614;86;20905;-41
2022/06/15 08:31:16;;;;;;;5.50;0.88;;;;;;;22.95;36.40;100873.20;1653688;86;21239;-41
2022/06/15 08:33:43;;;;;;;3.72;0.80;;;;;;;22.77;37.44;100869.09;1653598;86;20921;-41
2022/06/15 08:36:11;;;;;;;2.58;0.80;;;;;;;22.78;38.51;100873.42;1653780;86;21590;-41
2022/06/15 08:38:39;;;;;;;3.72;0.68;;;;;;;22.94;37.95;100874.14;1655073;85;20941;-41
2022/06/15 08:41:19;;;;;;;4.10;0.82;;;;;;;22.97;35.66;100871.76;1656511;86;21024;-42
2022/06/15 08:43:57;;;;;;;1.67;0.68;;;;;;;22.72;35.76;100881.73;1656328;86;21186;-41
2022/06/15 08:47:11;;;;;;;3.33;0.60;;;;;;;22.60;35.58;100880.70;1656517;86;20981;-40
2022/06/15 08:50:12;;;;;;;1.47;0.60;;;;;;;22.48;36.01;100887.14;1656782;86;21562;-41
2022/06/15 08:52:43;;;;;;;6.28;0.50;;;;;;;22.53;36.66;100879.78;1656407;86;20972;-40
2022/06/15 08:55:32;;;;;;;1.40;0.53;;;;;;;22.92;35.13;100885.73;1656531;86;21099;-40
2022/06/15 08:58:04;;;;;;;4.05;0.72;;;;;;;22.87;34.95;100878.59;1656574;86;21256;-41
2022/06/15 09:00:34;;;;;;;3.02;0.80;;;;;;;23.01;35.68;100878.56;1655811;86;20906;-42
2022/06/15 09:03:28;;;;;;;1.07;0.60;;;;;;;23.20;36.21;100879.53;1656381;86;21587;-41
2022/06/15 09:06:16;;;;;;;3.75;0.80;;;;;;;23.06;33.41;100878.24;1656390;86;21032;-41
2022/06/15 09:09:16;;;;;;;7.55;1.00;;;;;;;23.00;35.86;100866.77;1656473;86;21036;-42
2022/06/15 09:12:49;;;;;;;7.10;1.17;;;;;;;23.10;35.61;100866.53;1656598;86;21280;-42
2022/06/15 09:14:42;;;;;;;2.05;0.85;;;;;;;23.25;36.00;100863.42;1678327;85;21023;-41
2022/06/15 09:17:14;;;;;;;9.35;0.90;;;;;;;23.32;36.69;100875.27;1673240;85;21038;-42
2022/06/15 09:19:58;;;;;;;3.12;0.70;;;;;;;23.19;36.83;100872.55;1682658;85;21027;-42
2022/06/15 09:22:33;;;;;;;3.02;0.80;;;;;;;23.04;37.56;100874.86;1673352;85;20949;-41
2022/06/15 09:25:31;;;;;;;5.33;0.93;;;;;;;22.84;38.71;100874.34;1682724;84;20904;-42
2022/06/15 09:28:14;;;;;;;7.83;0.95;;;;;;;22.72;39.47;100872.50;1673656;85;20996;-41
2022/06/15 09:30:42;;;;;;;1.10;0.80;;;;;;;23.04;39.74;100871.77;1642122;86;20960;-42
2022/06/15 09:33:32;;;;;;;5.22;0.65;;;;;;;23.51;40.28;100867.45;1673333;85;21517;-42
2022/06/15 09:36:02;;;;;;;1.52;0.75;;;;;;;23.68;39.79;100872.92;1638760;87;20978;-42
2022/06/15 09:38:31;;;;;;;2.00;0.95;;;;;;;23.49;39.05;100871.96;1657239;85;21086;-42
2022/06/15 09:41:15;;;;;;;8.65;1.20;;;;;;;23.00;39.24;100876.01;1672532;85;20917;-42
2022/06/15 09:44:20;;;;;;;5.35;0.80;;;;;;;22.63;40.27;100866.87;1706649;84;20982;-42
2022/06/15 09:46:58;;;;;;;12.15;1.98;;;;;;;22.67;41.02;100867.05;1706594;84;20956;-42
2022/06/15 09:49:58;;;;;;;7.72;1.42;;;;;;;22.94;41.96;100864.05;1706712;84;20941;-42
2022/06/15 09:52:58;;;;;;;6.47;0.88;;;;;;;23.41;41.33;100864.58;1706615;83;22105;-42
2022/06/15 09:55:41;;;;;;;15.00;0.88;;;;;;;23.67;41.07;100863.30;1706576;84;21455;-42
2022/06/15 09:58:11;;;;;;;4.67;0.70;;;;;;;23.56;39.39;100861.84;1706476;84;20866;-42
2022/06/15 10:00:37;;;;;;;14.58;1.00;;;;;;;23.51;41.34;100864.32;1706544;84;20929;-42
2022/06/15 10:03:09;;;;;;;1.40;0.70;;;;;;;23.63;40.69;100855.22;1706669;83;20978;-42
2022/06/15 10:05:39;;;;;;;6.60;0.88;;;;;;;23.69;39.49;100860.08;1704247;84;21037;-42
2022/06/15 10:08:10;;;;;;;3.90;0.93;;;;;;;23.65;39.85;100857.28;1706496;84;21407;-42
2022/06/15 10:10:54;;;;;;;4.83;0.62;;;;;;;23.79;40.38;100855.84;1706629;83;21015;-42
2022/06/15 10:13:28;;;;;;;9.53;1.27;;;;;;;23.89;39.78;100869.28;1706554;84;20972;-42
2022/06/15 10:16:16;;;;;;;8.90;1.12;;;;;;;23.78;39.19;100868.69;1706673;83;20913;-42
2022/06/15 10:18:49;;;;;;;2.45;1.00;;;;;;;23.83;39.73;100856.00;1706591;84;21230;-41
2022/06/15 10:21:22;;;;;;;48.95;2.62;;;;;;;24.01;39.13;100856.19;1706710;84;20968;-41
2022/06/15 10:24:16;;;;;;;2.33;1.02;;;;;;;23.90;38.31;100854.28;1706676;84;20983;-41
2022/06/15 10:26:46;;;;;;;44.18;2.98;;;;;;;23.89;38.71;100855.23;1706582;84;20941;-42
2022/06/15 10:29:22;;;;;;;3.87;0.82;;;;;;;23.93;38.79;100854.07;1706510;83;20858;-42
2022/06/15 10:32:11;;;;;;;;;;;;;;;24.19;39.12;100848.80;1709087;84;21271;-42
2022/06/15 10:34:50;;;;;;;13.25;0.90;;;;;;;23.97;38.58;100851.58;1706269;83;20117;-42
2022/06/15 10:37:37;;;;;;;5.55;0.90;;;;;;;23.97;38.01;100850.26;1706612;84;20996;-41
2022/06/15 10:40:27;;;;;;;5.28;0.80;;;;;;;23.99;38.43;100857.61;1723686;83;20943;-42
2022/06/15 10:43:07;;;;;;;2.65;0.70;;;;;;;24.01;40.01;100848.27;1727438;83;21027;-42
2022/06/15 10:46:00;;;;;;;4.58;0.80;;;;;;;24.36;39.39;100845.80;1727564;83;21238;-42
2022/06/15 10:48:36;;;;;;;19.42;1.45;;;;;;;24.56;37.38;100832.95;1713484;83;20940;-41
2022/06/15 10:51:08;;;;;;;19.23;1.00;;;;;;;24.31;38.46;100838.67;1727534;83;20856;-42
2022/06/15 10:53:49;;;;;;;6.87;1.10;;;;;;;24.30;39.14;100846.23;1727633;82;20987;-42
2022/06/15 11:02:41;;;;;;;4.53;0.70;;;;;;;24.71;38.21;100847.37;1727513;83;21411;-42
2022/06/15 11:05:16;;;;;;;18.90;1.32;;;;;;;24.57;38.83;100844.39;1727665;83;21014;-43
2022/06/15 11:07:52;;;;;;;2.52;0.75;;;;;;;24.51;37.94;100833.77;1727627;83;20948;-41
2022/06/15 11:10:26;;;;;;;5.10;0.80;;;;;;;24.48;38.09;100834.81;1727627;83;20983;-42
2022/06/15 11:13:09;;;;;;;7.05;0.82;;;;;;;24.43;38.55;100834.80;1727797;83;21840;-42
2022/06/15 11:19:01;;;;;;;9.33;0.90;;;;;;;24.32;39.32;100831.10;1727612;83;20975;-42
2022/06/15 11:21:37;;;;;;;5.25;0.80;;;;;;;24.36;38.39;100829.92;1696206;83;20995;-42
2022/06/15 11:24:08;;;;;;;6.95;0.90;;;;;;;24.24;39.19;100826.84;1727642;83;20955;-41
2022/06/15 11:26:56;;;;;;;14.10;1.75;;;;;;;24.34;39.24;100825.22;1727524;83;20924;-42
2022/06/15 11:29:38;;;;;;;13.90;1.30;;;;;;;24.31;39.64;100833.37;1727361;83;20932;-43
2022/06/15 11:32:32;;;;;;;6.95;1.10;;;;;;;24.20;40.51;100828.02;1727565;82;20904;-42
2022/06/15 11:35:25;;;;;;;15.58;1.02;;;;;;;24.32;38.94;100829.78;1727711;83;20888;-42
2022/06/15 11:38:02;;;;;;;4.10;0.93;;;;;;;24.29;39.76;100820.74;1697726;83;21011;-42
2022/06/15 11:40:47;;;;;;;10.70;1.10;;;;;;;24.21;40.07;100833.18;1709453;83;21158;-42
2022/06/15 11:43:30;;;;;;;14.50;1.40;;;;;;;24.17;40.95;100822.95;1706295;83;20855;-43
2022/06/15 11:46:23;;;;;;;5.00;0.82;;;;;;;24.29;41.25;100820.74;1706688;84;20984;-42
2022/06/15 11:49:13;;;;;;;0.98;0.68;;;;;;;24.14;41.26;100839.03;1706691;83;20983;-41
2022/06/15 11:55:03;;;;;;;6.78;0.68;;;;;;;24.11;41.43;100836.94;1798416;79;23279;-41
2022/06/15 11:57:48;;;;;;;15.90;1.20;;;;;;;24.07;38.58;100829.36;1758268;81;20916;-42
2022/06/15 12:00:37;;;;;;;12.47;1.17;;;;;;;23.91;39.08;100839.63;1733502;81;21149;-43
2022/06/15 12:03:13;;;;;;;2.05;0.93;;;;;;;23.94;40.96;100842.55;1757901;81;20971;-42
2022/06/15 12:05:47;;;;;;;5.83;1.07;;;;;;;23.86;40.83;100842.20;1695904;83;20864;-42
2022/06/15 12:08:35;;;;;;;5.08;0.75;;;;;;;23.69;40.80;100836.30;1724605;83;20948;-43
2022/06/15 12:15:20;;;;;;;5.55;0.82;;;;;;;23.69;41.30;100827.05;1724787;83;21988;-41
2022/06/15 12:18:17;;;;;;;2.45;0.60;;;;;;;24.08;41.44;100826.59;1724653;83;21509;-41